James Turecamo — WDC7565 — position and weather

sailwx.info

Track history (hours):
 
Tides and Currents Weather Stations Pressure Air Temp Water Temp Dewpoint Dewpoint Depression Visibility Wind Speed Wind Dir Waves Ship Positions

James Turecamo

Owner: Moran Towing Corporation, New Canaan, CT. More information available from US FCC via Universal Licensing System and Coast Guard Vessel Documentation Center.

Last reported at 2015-Aug-02 11:33 UTC. Time now 2015-Aug-02 12:24 UTC.
Position N 40°38' W 074°08'.

Length 27 m; draft 4.5 m.

Type: Tug. MMSI: 367073380.

Date/timePositionNaut miles runAvg speedWind from/ knotsBaromVisibWave heightAir tempDewpointWater temp
2015-Aug-02 11:33N 40°38' W 074°08'0 0.0
2015-Aug-02 10:24N 40°38' W 074°08'0 0.0
2015-Aug-02 09:33N 40°38' W 074°08'0 0.0
2015-Aug-02 07:28N 40°38' W 074°08'0 0.0
2015-Aug-02 06:32N 40°38' W 074°08'0 0.0
2015-Aug-02 05:33N 40°38' W 074°08'0 0.0
2015-Aug-01 20:33N 40°38' W 074°08'0 0.0
2015-Aug-01 19:26N 40°38' W 074°08'0 0.0
2015-Aug-01 18:07N 40°38' W 074°08'3 5.4
2015-Aug-01 17:33N 40°41' W 074°08'0 0.3
2015-Aug-01 16:33N 40°42' W 074°09'3 3.4
2015-Aug-01 15:33N 40°39' W 074°11'2 2.3
2015-Aug-01 14:31N 40°38' W 074°08'1 0.7
2015-Aug-01 12:33N 40°39' W 074°09'3 3.3
2015-Aug-01 11:32N 40°36' W 074°12'4 4.2
2015-Aug-01 10:34N 40°38' W 074°08'0 0.1
2015-Aug-01 09:29N 40°38' W 074°08'0 0.0
2015-Aug-01 08:32N 40°38' W 074°08'0 0.0
2015-Aug-01 07:33N 40°38' W 074°08'0 0.0
2015-Aug-01 06:13N 40°38' W 074°08'0 0.0
2015-Aug-01 05:33N 40°38' W 074°08'0 0.0
2015-Aug-01 04:33N 40°38' W 074°08'0 0.0
2015-Jul-31 23:29N 40°38' W 074°08'0 0.0
2015-Jul-31 22:26N 40°38' W 074°08'0 0.0
2015-Jul-31 21:19N 40°38' W 074°08'0 0.0
2015-Jul-31 20:33N 40°38' W 074°08'4 4.0
2015-Jul-31 19:33N 40°36' W 074°12'0 0.0
2015-Jul-31 18:33N 40°36' W 074°12'2 1.0
2015-Jul-31 16:34N 40°38' W 074°12'3 0.7
2015-Jul-31 12:17N 40°38' W 074°08'0 0.0
2015-Jul-31 11:29N 40°38' W 074°08'2 1.9
2015-Jul-31 10:33N 40°40' W 074°08'0 0.4
2015-Jul-31 09:33N 40°40' W 074°08'1 1.5
2015-Jul-31 08:33N 40°38' W 074°08'0 0.0
2015-Jul-31 07:33N 40°38' W 074°08'0 0.0
2015-Jul-31 06:26N 40°38' W 074°08'0 0.0
2015-Jul-31 05:33N 40°38' W 074°08'0 0.0
2015-Jul-31 04:06N 40°38' W 074°08'0 0.0
2015-Jul-31 03:20N 40°38' W 074°08'0 0.0
2015-Jul-31 02:33N 40°38' W 074°08'0 0.0
2015-Jul-31 01:33N 40°38' W 074°08'0 0.0
2015-Jul-31 00:29N 40°38' W 074°08'0 0.0
2015-Jul-30 23:20N 40°38' W 074°08'0 0.0
2015-Jul-30 22:15N 40°38' W 074°08'0 0.0
2015-Jul-30 21:33N 40°38' W 074°08'0 0.0
2015-Jul-30 20:29N 40°38' W 074°08'0 0.0
2015-Jul-30 18:25N 40°38' W 074°08'0 0.0
2015-Jul-30 15:20N 40°38' W 074°08'0 0.0
2015-Jul-30 14:22N 40°38' W 074°08'0 0.0
2015-Jul-30 13:26N 40°38' W 074°08'0 0.0
2015-Jul-30 12:32N 40°38' W 074°08'0 0.0
2015-Jul-30 11:32N 40°38' W 074°08'1 0.6
2015-Jul-30 10:33N 40°39' W 074°09'0 0.4
2015-Jul-30 09:33N 40°39' W 074°09'1 1.0
2015-Jul-30 08:32N 40°38' W 074°08'3 2.7
2015-Jul-30 07:33N 40°41' W 074°09'0 0.1
2015-Jul-30 06:33N 40°41' W 074°09'2 2.3
2015-Jul-30 05:33N 40°39' W 074°08'0 0.4
2015-Jul-30 04:34N 40°38' W 074°08'0 0.0
2015-Jul-30 03:34N 40°38' W 074°08'0 0.0
2015-Jul-30 02:34N 40°38' W 074°08'0 0.0
2015-Jul-30 01:32N 40°38' W 074°08'2 2.4
2015-Jul-30 00:33N 40°39' W 074°11'1 0.5
2015-Jul-29 22:33N 40°38' W 074°12'3 2.7
2015-Jul-29 21:33N 40°39' W 074°09'2 2.3
2015-Jul-29 20:33N 40°39' W 074°06'3 3.1
2015-Jul-29 19:33N 40°41' W 074°08'1 0.8
2015-Jul-29 18:33N 40°42' W 074°09'4 3.8
2015-Jul-29 17:33N 40°39' W 074°05'1 1.0
2015-Jul-29 16:34N 40°39' W 074°04'3 2.8
2015-Jul-29 15:29N 40°38' W 074°08'0 0.0
2015-Jul-29 14:34N 40°38' W 074°08'0 0.0
2015-Jul-29 13:34N 40°38' W 074°08'1 0.6
2015-Jul-29 12:33N 40°39' W 074°07'5 4.6
2015-Jul-29 11:34N 40°40' W 074°01'5 5.5
2015-Jul-29 10:33N 40°40' W 074°08'0 0.5
2015-Jul-29 09:34N 40°40' W 074°08'2 1.5
2015-Jul-29 08:31N 40°38' W 074°08'0 0.0
2015-Jul-29 07:32N 40°38' W 074°08'0 0.0
2015-Jul-29 06:25N 40°38' W 074°08'0 0.0
2015-Jul-29 05:33N 40°38' W 074°08'0 0.0
2015-Jul-29 04:33N 40°38' W 074°08'7 6.8
2015-Jul-29 03:33N 40°45' W 074°05'3 2.9
2015-Jul-29 02:33N 40°48' W 074°04'2 2.4
2015-Jul-29 01:33N 40°49' W 074°02'4 3.9
2015-Jul-29 00:33N 40°46' W 074°05'2 1.9
2015-Jul-28 23:33N 40°45' W 074°05'2 2.2
2015-Jul-28 22:33N 40°44' W 074°07'1 0.7
2015-Jul-28 21:33N 40°44' W 074°07'8 7.5
2015-Jul-28 20:32N 40°38' W 074°12'1 0.6
2015-Jul-28 18:30N 40°36' W 074°12'4 4.2
2015-Jul-28 17:33N 40°38' W 074°08'0 0.0
2015-Jul-28 16:32N 40°38' W 074°08'0 0.0
2015-Jul-28 15:29N 40°38' W 074°08'0 0.0
2015-Jul-28 14:33N 40°38' W 074°08'0 0.0
2015-Jul-28 13:33N 40°38' W 074°08'0 0.0
2015-Jul-28 12:26N 40°38' W 074°08'0 0.0
2015-Jul-28 11:32N 40°38' W 074°08'0 0.0
2015-Jul-28 10:29N 40°38' W 074°08'2 2.2
2015-Jul-28 09:33N 40°40' W 074°08'2 1.7
2015-Jul-28 08:22N 40°38' W 074°08'0 0.0
2015-Jul-28 05:26N 40°38' W 074°08'0 0.0
2015-Jul-28 04:23N 40°38' W 074°08'0 0.0
2015-Jul-28 03:31N 40°38' W 074°08'1 0.3
2015-Jul-27 23:33N 40°39' W 074°09'3 3.1
2015-Jul-27 22:33N 40°42' W 074°07'2 2.2
2015-Jul-27 21:33N 40°40' W 074°08'2 1.6
2015-Jul-27 20:31N 40°39' W 074°07'0 0.0
2015-Jul-27 17:20N 40°39' W 074°07'1 0.9
2015-Jul-27 16:08N 40°38' W 074°08'0 0.0
2015-Jul-27 15:27N 40°38' W 074°08'0 0.1
2015-Jul-27 11:33N 40°39' W 074°08'4 0.7
2015-Jul-27 06:17N 40°37' W 074°12'0 0.1
2015-Jul-27 03:33N 40°37' W 074°12'4 0.2
2015-Jul-26 03:33N 40°38' W 074°08'0 0.0
2015-Jul-26 02:34N 40°38' W 074°08'0 0.0
2015-Jul-26 01:31N 40°38' W 074°08'0 0.0
2015-Jul-26 00:29N 40°38' W 074°08'0 0.0
2015-Jul-25 23:28N 40°38' W 074°08'0 0.0
2015-Jul-25 22:23N 40°38' W 074°08'2 2.2
2015-Jul-25 21:34N 40°40' W 074°08'2 1.8
2015-Jul-25 20:32N 40°38' W 074°08'0 0.0
2015-Jul-25 19:33N 40°38' W 074°08'0 0.0
2015-Jul-25 18:31N 40°38' W 074°08'0 0.0
2015-Jul-25 17:30N 40°38' W 074°08'0 0.0
2015-Jul-25 16:30N 40°38' W 074°08'0 0.0
2015-Jul-25 15:32N 40°38' W 074°08'0 0.0
2015-Jul-25 14:31N 40°38' W 074°08'0 0.0
2015-Jul-25 13:32N 40°38' W 074°08'0 0.0
2015-Jul-25 12:33N 40°38' W 074°08'2 2.4
2015-Jul-25 11:33N 40°39' W 074°11'4 3.7
2015-Jul-25 10:29N 40°35' W 074°13'1 1.5
2015-Jul-25 09:28N 40°37' W 074°12'4 0.6
2015-Jul-25 03:09N 40°38' W 074°08'0 0.0
2015-Jul-25 00:31N 40°38' W 074°08'3 2.7
2015-Jul-24 23:32N 40°41' W 074°08'1 0.4
2015-Jul-24 22:25N 40°41' W 074°08'1 0.7
2015-Jul-24 21:34N 40°42' W 074°09'2 1.8
2015-Jul-24 20:33N 40°40' W 074°08'3 3.2
2015-Jul-24 19:33N 40°40' W 074°04'0 0.0
2015-Jul-24 18:33N 40°40' W 074°04'0 0.0
2015-Jul-24 17:33N 40°40' W 074°04'0 0.0
2015-Jul-24 16:33N 40°40' W 074°04'0 0.1
2015-Jul-24 15:34N 40°40' W 074°04'3 3.0
2015-Jul-24 14:33N 40°38' W 074°08'3 3.4
2015-Jul-24 13:33N 40°38' W 074°12'3 3.2
2015-Jul-24 12:30N 40°38' W 074°08'2 1.9
2015-Jul-24 11:33N 40°40' W 074°08'1 0.9
2015-Jul-24 10:33N 40°41' W 074°08'2 2.1
2015-Jul-24 09:33N 40°39' W 074°09'4 4.2
2015-Jul-24 08:33N 40°39' W 074°03'2 1.9
2015-Jul-24 07:33N 40°41' W 074°04'4 3.7
2015-Jul-24 06:33N 40°38' W 074°08'0 0.0
2015-Jul-24 05:33N 40°38' W 074°08'0 0.0
2015-Jul-24 04:33N 40°38' W 074°08'0 0.0
2015-Jul-24 03:33N 40°38' W 074°08'0 0.0
2015-Jul-24 02:33N 40°38' W 074°08'0 0.0
2015-Jul-24 01:33N 40°38' W 074°08'0 0.0
2015-Jul-24 00:33N 40°38' W 074°08'0 0.0
2015-Jul-23 23:33N 40°38' W 074°08'0 0.0
2015-Jul-23 22:34N 40°38' W 074°08'4 4.0
2015-Jul-23 21:33N 40°39' W 074°03'5 4.7
2015-Jul-23 20:33N 40°38' W 074°09'3 0.9
2015-Jul-23 17:14N 40°37' W 074°12'6 8.6
2015-Jul-23 16:34N 40°39' W 074°05'2 2.2
2015-Jul-23 15:33N 40°38' W 074°08'3 3.1
2015-Jul-23 14:33N 40°38' W 074°12'3 3.1
2015-Jul-23 13:33N 40°38' W 074°08'0 0.0
2015-Jul-23 12:33N 40°38' W 074°08'  
Track history (hours):
 
Tides and Currents Weather Stations Pressure Air Temp Water Temp Dewpoint Dewpoint Depression Visibility Wind Speed Wind Dir Waves Ship Positions

James Turecamo

Owner: Moran Towing Corporation, New Canaan, CT. More information available from US FCC via Universal Licensing System and Coast Guard Vessel Documentation Center.

Last reported at 2015-Aug-02 11:33 UTC. Time now 2015-Aug-02 12:24 UTC.
Position N 40°38' W 074°08'.

Length 27 m; draft 4.5 m.

Type: Tug. MMSI: 367073380.

Date/timePositionNaut miles runAvg speedWind from/ knotsBaromVisibWave heightAir tempDewpointWater temp
2015-Aug-02 11:33N 40°38' W 074°08'0 0.0
2015-Aug-02 10:24N 40°38' W 074°08'0 0.0
2015-Aug-02 09:33N 40°38' W 074°08'0 0.0
2015-Aug-02 07:28N 40°38' W 074°08'0 0.0
2015-Aug-02 06:32N 40°38' W 074°08'0 0.0
2015-Aug-02 05:33N 40°38' W 074°08'0 0.0
2015-Aug-01 20:33N 40°38' W 074°08'0 0.0
2015-Aug-01 19:26N 40°38' W 074°08'0 0.0
2015-Aug-01 18:07N 40°38' W 074°08'3 5.4
2015-Aug-01 17:33N 40°41' W 074°08'0 0.3
2015-Aug-01 16:33N 40°42' W 074°09'3 3.4
2015-Aug-01 15:33N 40°39' W 074°11'2 2.3
2015-Aug-01 14:31N 40°38' W 074°08'1 0.7
2015-Aug-01 12:33N 40°39' W 074°09'3 3.3
2015-Aug-01 11:32N 40°36' W 074°12'4 4.2
2015-Aug-01 10:34N 40°38' W 074°08'0 0.1
2015-Aug-01 09:29N 40°38' W 074°08'0 0.0
2015-Aug-01 08:32N 40°38' W 074°08'0 0.0
2015-Aug-01 07:33N 40°38' W 074°08'0 0.0
2015-Aug-01 06:13N 40°38' W 074°08'0 0.0
2015-Aug-01 05:33N 40°38' W 074°08'0 0.0
2015-Aug-01 04:33N 40°38' W 074°08'0 0.0
2015-Jul-31 23:29N 40°38' W 074°08'0 0.0
2015-Jul-31 22:26N 40°38' W 074°08'0 0.0
2015-Jul-31 21:19N 40°38' W 074°08'0 0.0
2015-Jul-31 20:33N 40°38' W 074°08'4 4.0
2015-Jul-31 19:33N 40°36' W 074°12'0 0.0
2015-Jul-31 18:33N 40°36' W 074°12'2 1.0
2015-Jul-31 16:34N 40°38' W 074°12'3 0.7
2015-Jul-31 12:17N 40°38' W 074°08'0 0.0
2015-Jul-31 11:29N 40°38' W 074°08'2 1.9
2015-Jul-31 10:33N 40°40' W 074°08'0 0.4
2015-Jul-31 09:33N 40°40' W 074°08'1 1.5
2015-Jul-31 08:33N 40°38' W 074°08'0 0.0
2015-Jul-31 07:33N 40°38' W 074°08'0 0.0
2015-Jul-31 06:26N 40°38' W 074°08'0 0.0
2015-Jul-31 05:33N 40°38' W 074°08'0 0.0
2015-Jul-31 04:06N 40°38' W 074°08'0 0.0
2015-Jul-31 03:20N 40°38' W 074°08'0 0.0
2015-Jul-31 02:33N 40°38' W 074°08'0 0.0
2015-Jul-31 01:33N 40°38' W 074°08'0 0.0
2015-Jul-31 00:29N 40°38' W 074°08'0 0.0
2015-Jul-30 23:20N 40°38' W 074°08'0 0.0
2015-Jul-30 22:15N 40°38' W 074°08'0 0.0
2015-Jul-30 21:33N 40°38' W 074°08'0 0.0
2015-Jul-30 20:29N 40°38' W 074°08'0 0.0
2015-Jul-30 18:25N 40°38' W 074°08'0 0.0
2015-Jul-30 15:20N 40°38' W 074°08'0 0.0
2015-Jul-30 14:22N 40°38' W 074°08'0 0.0
2015-Jul-30 13:26N 40°38' W 074°08'0 0.0
2015-Jul-30 12:32N 40°38' W 074°08'0 0.0
2015-Jul-30 11:32N 40°38' W 074°08'1 0.6
2015-Jul-30 10:33N 40°39' W 074°09'0 0.4
2015-Jul-30 09:33N 40°39' W 074°09'1 1.0
2015-Jul-30 08:32N 40°38' W 074°08'3 2.7
2015-Jul-30 07:33N 40°41' W 074°09'0 0.1
2015-Jul-30 06:33N 40°41' W 074°09'2 2.3
2015-Jul-30 05:33N 40°39' W 074°08'0 0.4
2015-Jul-30 04:34N 40°38' W 074°08'0 0.0
2015-Jul-30 03:34N 40°38' W 074°08'0 0.0
2015-Jul-30 02:34N 40°38' W 074°08'0 0.0
2015-Jul-30 01:32N 40°38' W 074°08'2 2.4
2015-Jul-30 00:33N 40°39' W 074°11'1 0.5
2015-Jul-29 22:33N 40°38' W 074°12'3 2.7
2015-Jul-29 21:33N 40°39' W 074°09'2 2.3
2015-Jul-29 20:33N 40°39' W 074°06'3 3.1
2015-Jul-29 19:33N 40°41' W 074°08'1 0.8
2015-Jul-29 18:33N 40°42' W 074°09'4 3.8
2015-Jul-29 17:33N 40°39' W 074°05'1 1.0
2015-Jul-29 16:34N 40°39' W 074°04'3 2.8
2015-Jul-29 15:29N 40°38' W 074°08'0 0.0
2015-Jul-29 14:34N 40°38' W 074°08'0 0.0
2015-Jul-29 13:34N 40°38' W 074°08'1 0.6
2015-Jul-29 12:33N 40°39' W 074°07'5 4.6
2015-Jul-29 11:34N 40°40' W 074°01'5 5.5
2015-Jul-29 10:33N 40°40' W 074°08'0 0.5
2015-Jul-29 09:34N 40°40' W 074°08'2 1.5
2015-Jul-29 08:31N 40°38' W 074°08'0 0.0
2015-Jul-29 07:32N 40°38' W 074°08'0 0.0
2015-Jul-29 06:25N 40°38' W 074°08'0 0.0
2015-Jul-29 05:33N 40°38' W 074°08'0 0.0
2015-Jul-29 04:33N 40°38' W 074°08'7 6.8
2015-Jul-29 03:33N 40°45' W 074°05'3 2.9
2015-Jul-29 02:33N 40°48' W 074°04'2 2.4
2015-Jul-29 01:33N 40°49' W 074°02'4 3.9
2015-Jul-29 00:33N 40°46' W 074°05'2 1.9
2015-Jul-28 23:33N 40°45' W 074°05'2 2.2
2015-Jul-28 22:33N 40°44' W 074°07'1 0.7
2015-Jul-28 21:33N 40°44' W 074°07'8 7.5
2015-Jul-28 20:32N 40°38' W 074°12'1 0.6
2015-Jul-28 18:30N 40°36' W 074°12'4 4.2
2015-Jul-28 17:33N 40°38' W 074°08'0 0.0
2015-Jul-28 16:32N 40°38' W 074°08'0 0.0
2015-Jul-28 15:29N 40°38' W 074°08'0 0.0
2015-Jul-28 14:33N 40°38' W 074°08'0 0.0
2015-Jul-28 13:33N 40°38' W 074°08'0 0.0
2015-Jul-28 12:26N 40°38' W 074°08'0 0.0
2015-Jul-28 11:32N 40°38' W 074°08'0 0.0
2015-Jul-28 10:29N 40°38' W 074°08'2 2.2
2015-Jul-28 09:33N 40°40' W 074°08'2 1.7
2015-Jul-28 08:22N 40°38' W 074°08'0 0.0
2015-Jul-28 05:26N 40°38' W 074°08'0 0.0
2015-Jul-28 04:23N 40°38' W 074°08'0 0.0
2015-Jul-28 03:31N 40°38' W 074°08'1 0.3
2015-Jul-27 23:33N 40°39' W 074°09'3 3.1
2015-Jul-27 22:33N 40°42' W 074°07'2 2.2
2015-Jul-27 21:33N 40°40' W 074°08'2 1.6
2015-Jul-27 20:31N 40°39' W 074°07'0 0.0
2015-Jul-27 17:20N 40°39' W 074°07'1 0.9
2015-Jul-27 16:08N 40°38' W 074°08'0 0.0
2015-Jul-27 15:27N 40°38' W 074°08'0 0.1
2015-Jul-27 11:33N 40°39' W 074°08'4 0.7
2015-Jul-27 06:17N 40°37' W 074°12'0 0.1
2015-Jul-27 03:33N 40°37' W 074°12'4 0.2
2015-Jul-26 03:33N 40°38' W 074°08'0 0.0
2015-Jul-26 02:34N 40°38' W 074°08'0 0.0
2015-Jul-26 01:31N 40°38' W 074°08'0 0.0
2015-Jul-26 00:29N 40°38' W 074°08'0 0.0
2015-Jul-25 23:28N 40°38' W 074°08'0 0.0
2015-Jul-25 22:23N 40°38' W 074°08'2 2.2
2015-Jul-25 21:34N 40°40' W 074°08'2 1.8
2015-Jul-25 20:32N 40°38' W 074°08'0 0.0
2015-Jul-25 19:33N 40°38' W 074°08'0 0.0
2015-Jul-25 18:31N 40°38' W 074°08'0 0.0
2015-Jul-25 17:30N 40°38' W 074°08'0 0.0
2015-Jul-25 16:30N 40°38' W 074°08'0 0.0
2015-Jul-25 15:32N 40°38' W 074°08'0 0.0
2015-Jul-25 14:31N 40°38' W 074°08'0 0.0
2015-Jul-25 13:32N 40°38' W 074°08'0 0.0
2015-Jul-25 12:33N 40°38' W 074°08'2 2.4
2015-Jul-25 11:33N 40°39' W 074°11'4 3.7
2015-Jul-25 10:29N 40°35' W 074°13'1 1.5
2015-Jul-25 09:28N 40°37' W 074°12'4 0.6
2015-Jul-25 03:09N 40°38' W 074°08'0 0.0
2015-Jul-25 00:31N 40°38' W 074°08'3 2.7
2015-Jul-24 23:32N 40°41' W 074°08'1 0.4
2015-Jul-24 22:25N 40°41' W 074°08'1 0.7
2015-Jul-24 21:34N 40°42' W 074°09'2 1.8
2015-Jul-24 20:33N 40°40' W 074°08'3 3.2
2015-Jul-24 19:33N 40°40' W 074°04'0 0.0
2015-Jul-24 18:33N 40°40' W 074°04'0 0.0
2015-Jul-24 17:33N 40°40' W 074°04'0 0.0
2015-Jul-24 16:33N 40°40' W 074°04'0 0.1
2015-Jul-24 15:34N 40°40' W 074°04'3 3.0
2015-Jul-24 14:33N 40°38' W 074°08'3 3.4
2015-Jul-24 13:33N 40°38' W 074°12'3 3.2
2015-Jul-24 12:30N 40°38' W 074°08'2 1.9
2015-Jul-24 11:33N 40°40' W 074°08'1 0.9
2015-Jul-24 10:33N 40°41' W 074°08'2 2.1
2015-Jul-24 09:33N 40°39' W 074°09'4 4.2
2015-Jul-24 08:33N 40°39' W 074°03'2 1.9
2015-Jul-24 07:33N 40°41' W 074°04'4 3.7
2015-Jul-24 06:33N 40°38' W 074°08'0 0.0
2015-Jul-24 05:33N 40°38' W 074°08'0 0.0
2015-Jul-24 04:33N 40°38' W 074°08'0 0.0
2015-Jul-24 03:33N 40°38' W 074°08'0 0.0
2015-Jul-24 02:33N 40°38' W 074°08'0 0.0
2015-Jul-24 01:33N 40°38' W 074°08'0 0.0
2015-Jul-24 00:33N 40°38' W 074°08'0 0.0
2015-Jul-23 23:33N 40°38' W 074°08'0 0.0
2015-Jul-23 22:34N 40°38' W 074°08'4 4.0
2015-Jul-23 21:33N 40°39' W 074°03'5 4.7
2015-Jul-23 20:33N 40°38' W 074°09'3 0.9
2015-Jul-23 17:14N 40°37' W 074°12'6 8.6
2015-Jul-23 16:34N 40°39' W 074°05'2 2.2
2015-Jul-23 15:33N 40°38' W 074°08'3 3.1
2015-Jul-23 14:33N 40°38' W 074°12'3 3.1
2015-Jul-23 13:33N 40°38' W 074°08'0 0.0
2015-Jul-23 12:33N 40°38' W 074°08'  

Dump ship's entire track history